createdAt,value
2022-12-11T01:00:11.224Z,98032.03
2022-12-11T01:02:38.739Z,98025.94
2022-12-11T01:05:06.940Z,98023.53
2022-12-11T01:07:34.211Z,98018.84
2022-12-11T01:10:19.749Z,98027.59
2022-12-11T01:12:46.652Z,98022.31
2022-12-11T01:15:13.435Z,98015.00
2022-12-11T01:17:40.370Z,98023.53
2022-12-11T01:20:08.696Z,98023.94
2022-12-11T01:22:35.918Z,98016.63
2022-12-11T01:25:03.323Z,98017.03
2022-12-11T01:27:30.536Z,98012.38
2022-12-11T01:29:57.721Z,98018.22
2022-12-11T01:32:24.764Z,98030.03
2022-12-11T01:34:52.102Z,98029.00
2022-12-11T01:37:19.652Z,98018.84
2022-12-11T01:39:47.213Z,98032.22
2022-12-11T01:42:21.184Z,98033.28
2022-12-11T01:44:48.238Z,98050.09
2022-12-11T01:47:15.403Z,98034.09
2022-12-11T01:49:42.778Z,98044.81
2022-12-11T01:52:15.508Z,98052.09
2022-12-11T01:54:43.819Z,98038.69
2022-12-11T01:57:12.120Z,98047.41
2022-12-11T01:59:41.904Z,98040.91
2022-12-11T02:02:15.265Z,98034.63
2022-12-11T02:04:44.490Z,98028.31
2022-12-11T02:07:11.894Z,98035.06
2022-12-11T02:09:43.162Z,98041.97
2022-12-11T02:12:22.651Z,98053.50
2022-12-11T02:15:00.919Z,98052.69
2022-12-11T02:23:43.691Z,98054.09
2022-12-11T02:26:38.475Z,98043.34
2022-12-11T02:29:10.696Z,98045.56
2022-12-11T02:31:46.331Z,98030.75
2022-12-11T02:37:17.954Z,98045.41
2022-12-11T02:39:49.283Z,98027.13
2022-12-11T02:42:48.514Z,98033.88
2022-12-11T03:31:42.661Z,98008.88
2022-12-11T03:34:32.190Z,98012.91
2022-12-11T04:08:15.445Z,98019.47
2022-12-11T04:34:27.817Z,98033.69
2022-12-11T04:36:55.258Z,98031.78
2022-12-11T04:39:24.293Z,98027.72
2022-12-11T04:41:53.097Z,98027.94
2022-12-11T04:44:20.291Z,98030.75
2022-12-11T04:46:47.668Z,98043.09
2022-12-11T04:49:14.916Z,98062.59
2022-12-11T04:51:42.162Z,98054.91
2022-12-11T10:59:52.166Z,98164.44
2022-12-11T14:25:21.952Z,98222.00
2022-12-11T14:27:51.088Z,98218.72
2022-12-11T14:30:28.151Z,98215.84
2022-12-11T14:32:58.835Z,98224.81
2022-12-11T14:35:40.661Z,98235.91
2022-12-11T14:38:23.927Z,98230.66
2022-12-11T14:40:56.803Z,98235.41
2022-12-11T14:43:29.303Z,98241.88
2022-12-11T14:46:01.134Z,98231.31
2022-12-11T14:48:35.060Z,98263.56
2022-12-11T14:51:04.605Z,98267.66
2022-12-11T14:53:42.499Z,98256.56
2022-12-11T14:56:17.917Z,98265.09
2022-12-11T14:58:52.831Z,98269.00
2022-12-11T15:01:24.283Z,98272.19
2022-12-11T15:04:03.344Z,98282.66
2022-12-11T15:06:51.769Z,98279.75
2022-12-11T15:09:26.921Z,98288.09
2022-12-11T15:11:59.969Z,98286.81
2022-12-11T15:14:47.012Z,98292.97
2022-12-11T15:17:14.611Z,98285.19
2022-12-11T15:19:41.854Z,98291.09
2022-12-11T17:00:07.140Z,98320.03
2022-12-11T17:02:33.977Z,98320.03
2022-12-11T17:05:00.764Z,98323.50
2022-12-11T17:07:27.640Z,98322.13
2022-12-11T17:09:54.333Z,98327.94
2022-12-11T17:12:27.553Z,98325.84
2022-12-11T17:14:55.382Z,98326.00
2022-12-11T17:17:22.118Z,98324.84
2022-12-11T17:19:49.001Z,98327.81
2022-12-11T17:22:15.645Z,98322.84
2022-12-11T17:24:42.296Z,98323.22
2022-12-11T17:27:09.027Z,98328.66
2022-12-11T17:29:35.766Z,98325.97
2022-12-11T17:32:03.349Z,98326.22
2022-12-11T17:34:36.060Z,98331.66
2022-12-11T17:37:05.251Z,98336.00
2022-12-11T17:39:32.032Z,98343.59
2022-12-11T17:41:59.003Z,98346.06
2022-12-11T17:44:26.839Z,98350.31
2022-12-11T17:46:53.907Z,98345.06
2022-12-11T17:49:20.697Z,98347.56
2022-12-11T17:51:48.027Z,98357.09
2022-12-11T17:54:15.047Z,98351.41
2022-12-11T17:56:41.734Z,98353.22
2022-12-11T17:59:08.472Z,98360.72
2022-12-11T18:01:35.548Z,98362.63
2022-12-11T18:04:02.622Z,98357.75
2022-12-11T18:06:30.199Z,98363.41
2022-12-11T18:08:57.229Z,98362.25
2022-12-11T18:11:24.058Z,98371.88
2022-12-11T18:13:52.513Z,98369.63
2022-12-11T18:16:26.475Z,98368.97
2022-12-11T18:18:53.860Z,98367.59
2022-12-11T18:21:28.678Z,98363.94
2022-12-11T18:23:56.022Z,98366.41
2022-12-11T18:26:23.090Z,98367.53
2022-12-11T18:28:51.075Z,98364.00
2022-12-11T18:31:18.703Z,98367.94
2022-12-11T18:33:46.773Z,98370.97
2022-12-11T18:36:15.226Z,98365.56
2022-12-11T18:38:42.713Z,98368.44
2022-12-11T18:41:11.844Z,98365.34
2022-12-11T18:43:40.523Z,98366.34
2022-12-11T18:46:15.394Z,98374.38
2022-12-11T18:48:43.310Z,98363.06
2022-12-11T18:51:13.476Z,98366.63
2022-12-11T18:53:40.933Z,98373.41
2022-12-11T18:56:13.190Z,98367.09
2022-12-11T18:58:40.139Z,98368.50
2022-12-11T19:01:08.957Z,98372.59
2022-12-11T19:03:35.761Z,98369.63
2022-12-11T19:06:31.421Z,98372.03
2022-12-11T19:09:05.512Z,98370.84
2022-12-11T19:11:41.318Z,98365.34
2022-12-11T19:14:09.787Z,98371.19
2022-12-11T19:16:39.748Z,98370.78
2022-12-11T19:19:10.056Z,98365.81
2022-12-11T19:21:40.289Z,98369.72
2022-12-11T19:24:09.016Z,98369.25
2022-12-11T19:26:36.352Z,98355.66
2022-12-11T19:29:04.007Z,98363.47
2022-12-11T19:31:31.698Z,98361.59
2022-12-11T19:33:58.899Z,98361.97
2022-12-11T19:36:27.552Z,98356.53
2022-12-11T19:39:00.951Z,98364.59
2022-12-11T19:41:29.302Z,98364.97
2022-12-11T19:43:58.370Z,98356.88
2022-12-11T19:46:25.857Z,98366.88
2022-12-11T19:48:54.364Z,98361.28
2022-12-11T19:51:24.381Z,98368.56
2022-12-11T19:53:51.408Z,98361.44
2022-12-11T19:56:19.808Z,98355.94
2022-12-11T19:58:48.493Z,98357.06
2022-12-11T20:01:28.550Z,98354.19
2022-12-11T20:03:57.904Z,98350.63
2022-12-11T20:06:24.747Z,98355.16
2022-12-11T20:08:51.605Z,98350.94
2022-12-11T20:11:19.240Z,98360.28
2022-12-11T20:13:49.763Z,98352.41
2022-12-11T20:16:17.957Z,98350.69
2022-12-11T20:18:44.948Z,98353.66
2022-12-11T20:21:14.456Z,98345.94
2022-12-11T20:23:41.613Z,98353.31
2022-12-11T20:26:10.798Z,98353.47
2022-12-11T20:28:37.729Z,98350.06
2022-12-11T20:31:13.554Z,98345.22
2022-12-11T20:33:43.461Z,98346.50
2022-12-11T20:36:12.074Z,98341.44
2022-12-11T20:38:38.908Z,98335.81
2022-12-11T20:41:07.005Z,98330.25
2022-12-11T20:43:33.782Z,98337.72
2022-12-11T20:46:00.557Z,98342.16
2022-12-11T20:48:27.355Z,98340.97
2022-12-11T20:51:10.938Z,98348.09
2022-12-11T20:53:38.118Z,98341.44
2022-12-11T20:56:16.259Z,98346.22
2022-12-11T20:58:44.261Z,98346.94
2022-12-11T21:01:19.311Z,98342.09
2022-12-11T21:03:46.614Z,98353.59
2022-12-11T21:06:26.762Z,98346.56
2022-12-11T21:08:54.056Z,98350.31
2022-12-11T21:11:21.376Z,98346.16
2022-12-11T21:13:50.511Z,98358.84
2022-12-11T21:16:18.256Z,98358.78
2022-12-11T21:18:46.725Z,98347.97
2022-12-11T21:21:13.670Z,98349.66
2022-12-11T21:23:40.561Z,98346.59
2022-12-11T21:26:09.771Z,98351.75
2022-12-11T21:28:36.500Z,98342.50
2022-12-11T21:31:09.278Z,98349.38
2022-12-11T21:33:36.326Z,98357.28
2022-12-11T21:36:04.171Z,98350.03
2022-12-11T21:38:30.931Z,98355.41
2022-12-11T21:41:10.094Z,98356.03
2022-12-11T21:43:43.360Z,98347.75
2022-12-11T21:46:26.337Z,98357.91
2022-12-11T21:48:53.297Z,98358.72
2022-12-11T21:51:22.903Z,98347.56
2022-12-11T21:53:51.868Z,98356.75
2022-12-11T21:56:21.356Z,98349.94
2022-12-11T21:58:48.788Z,98352.13
2022-12-11T22:01:21.526Z,98358.03
2022-12-11T22:03:48.696Z,98348.28
2022-12-11T22:06:16.553Z,98353.56
2022-12-11T22:08:49.523Z,98351.13
2022-12-11T22:11:21.634Z,98343.88
2022-12-11T22:13:48.395Z,98345.69
2022-12-11T22:16:15.173Z,98344.13
2022-12-11T22:18:42.050Z,98352.78
2022-12-11T22:21:08.956Z,98350.94
2022-12-11T22:23:37.826Z,98348.19
2022-12-11T22:26:04.562Z,98353.72
2022-12-11T22:28:31.166Z,98351.16
2022-12-11T22:30:57.928Z,98352.06
2022-12-11T22:33:24.811Z,98354.59
2022-12-11T22:35:59.015Z,98349.66
2022-12-11T22:38:26.221Z,98343.31
2022-12-11T22:40:54.235Z,98356.84
2022-12-11T22:43:21.727Z,98363.41
2022-12-11T22:45:49.144Z,98366.56
2022-12-11T22:48:15.912Z,98366.41
2022-12-11T22:50:42.881Z,98358.97
2022-12-11T22:53:10.079Z,98363.16
2022-12-11T22:55:39.010Z,98357.34
2022-12-11T22:58:06.074Z,98367.78
2022-12-11T23:00:32.790Z,98363.41
2022-12-11T23:02:59.607Z,98366.22
2022-12-11T23:05:26.322Z,98364.25
2022-12-11T23:07:53.124Z,98365.59
2022-12-11T23:10:19.945Z,98357.69
2022-12-11T23:12:46.723Z,98357.34
2022-12-11T23:15:13.801Z,98348.34
2022-12-11T23:17:40.646Z,98355.25
2022-12-11T23:20:07.834Z,98345.69
2022-12-11T23:22:34.734Z,98361.09
2022-12-11T23:25:01.449Z,98359.47
2022-12-11T23:27:28.102Z,98357.66
2022-12-11T23:29:55.287Z,98358.84
2022-12-11T23:32:22.566Z,98367.47
2022-12-11T23:34:49.176Z,98360.69
2022-12-11T23:37:15.795Z,98373.78
2022-12-11T23:39:42.583Z,98367.94
2022-12-11T23:42:09.464Z,98366.06
2022-12-11T23:44:36.307Z,98362.69
2022-12-11T23:47:03.231Z,98352.28
2022-12-11T23:49:30.144Z,98357.19
2022-12-11T23:51:56.817Z,98358.56
2022-12-11T23:54:23.557Z,98361.97
2022-12-11T23:56:50.250Z,98370.19
2022-12-11T23:59:16.862Z,98373.50
